createdAt,value
2019-04-26T00:02:28.921Z,18.28
2019-04-26T00:04:59.170Z,18.30
2019-04-26T00:07:28.336Z,18.31
2019-04-26T00:09:57.932Z,18.27
2019-04-26T00:12:57.776Z,18.24
2019-04-26T00:15:52.049Z,18.20
2019-04-26T00:18:21.176Z,18.14
2019-04-26T00:20:50.319Z,18.04
2019-04-26T00:23:19.373Z,18.00
2019-04-26T00:25:48.530Z,17.99
2019-04-26T00:28:17.661Z,17.98
2019-04-26T00:30:46.850Z,17.96
2019-04-26T00:33:15.955Z,17.97
2019-04-26T00:35:47.849Z,17.97
2019-04-26T00:38:16.131Z,17.98
2019-04-26T00:40:45.271Z,17.99
2019-04-26T00:43:14.370Z,18.01
2019-04-26T00:45:51.844Z,18.00
2019-04-26T00:48:21.101Z,18.04
2019-04-26T00:50:50.213Z,18.06
2019-04-26T00:53:19.640Z,18.11
2019-04-26T00:55:48.827Z,18.14
2019-04-26T00:58:18.647Z,18.16
2019-04-26T01:00:48.715Z,18.21
2019-04-26T01:03:18.631Z,18.23
2019-04-26T01:05:59.600Z,18.17
2019-04-26T01:08:19.278Z,18.27
2019-04-26T01:10:48.412Z,18.28
2019-04-26T01:13:17.873Z,18.28
2019-04-26T01:15:46.980Z,18.30
2019-04-26T01:18:16.836Z,18.32
2019-04-26T01:20:46.142Z,18.32
2019-04-26T01:23:15.283Z,18.30
2019-04-26T01:25:51.501Z,18.31
2019-04-26T01:28:31.545Z,18.31
2019-04-26T01:31:01.253Z,18.30
2019-04-26T01:33:30.464Z,18.30
2019-04-26T01:36:12.180Z,18.30
2019-04-26T01:38:30.482Z,18.28
2019-04-26T01:41:03.054Z,18.26
2019-04-26T01:43:57.183Z,18.25
2019-04-26T01:46:31.053Z,18.23
2019-04-26T01:49:02.275Z,18.21
2019-04-26T01:51:46.115Z,18.15
2019-04-26T01:54:16.506Z,18.14
2019-04-26T01:56:45.559Z,18.13
2019-04-26T01:59:15.127Z,18.11
2019-04-26T02:01:53.995Z,18.10
2019-04-26T02:04:24.363Z,18.11
2019-04-26T02:06:56.322Z,18.10
2019-04-26T02:09:26.371Z,18.06
2019-04-26T02:11:55.722Z,18.07
2019-04-26T02:14:25.259Z,18.06
2019-04-26T02:16:54.522Z,18.01
2019-04-26T02:19:24.830Z,17.98
2019-04-26T02:22:20.922Z,17.92
2019-04-26T02:24:50.449Z,17.89
2019-04-26T02:27:28.286Z,17.87
2019-04-26T02:29:58.197Z,17.81
2019-04-26T02:32:29.081Z,17.75
2019-04-26T02:34:58.115Z,17.72
2019-04-26T02:37:28.764Z,17.67
2019-04-26T02:39:58.094Z,17.63
2019-04-26T02:42:39.677Z,17.64
2019-04-26T02:45:53.351Z,17.61
2019-04-26T02:48:32.702Z,17.62
2019-04-26T02:51:06.531Z,17.59
2019-04-26T02:53:56.166Z,17.57
2019-04-26T02:56:32.244Z,17.57
2019-04-26T02:59:37.705Z,17.49
2019-04-26T03:02:09.105Z,17.53
2019-04-26T03:04:39.524Z,17.53
2019-04-26T03:07:18.192Z,17.52
2019-04-26T03:09:47.316Z,17.51
2019-04-26T03:12:16.606Z,17.50
2019-04-26T03:15:13.865Z,17.51
2019-04-26T03:18:17.474Z,14.91
2019-04-26T03:20:47.918Z,17.51
2019-04-26T03:23:57.025Z,17.46
2019-04-26T03:26:26.545Z,17.44
2019-04-26T03:29:24.284Z,17.41
2019-04-26T03:32:16.490Z,17.39
2019-04-26T03:35:21.663Z,17.39
2019-04-26T03:38:02.980Z,17.33
2019-04-26T03:40:51.501Z,17.29
2019-04-26T03:43:43.365Z,17.23
2019-04-26T03:46:39.789Z,17.20
2019-04-26T03:49:45.861Z,17.13
2019-04-26T03:52:35.296Z,17.11
2019-04-26T03:55:09.311Z,17.05
2019-04-26T03:57:51.544Z,17.03
2019-04-26T04:00:48.704Z,17.02
2019-04-26T04:03:33.365Z,17.03
2019-04-26T04:06:03.055Z,17.03
2019-04-26T04:08:40.758Z,16.96
2019-04-26T04:11:11.921Z,16.95
2019-04-26T04:13:58.971Z,16.92
2019-04-26T04:16:56.951Z,16.90
2019-04-26T04:19:59.770Z,16.86
2019-04-26T04:22:32.969Z,16.77
2019-04-26T04:25:04.457Z,16.79
2019-04-26T04:27:41.372Z,16.78
2019-04-26T04:30:20.762Z,16.77
2019-04-26T04:33:05.985Z,16.77
2019-04-26T04:35:36.944Z,16.76
2019-04-26T04:38:13.565Z,16.71
2019-04-26T04:41:29.597Z,16.72
2019-04-26T04:44:12.822Z,16.75
2019-04-26T04:47:23.923Z,16.70
2019-04-26T04:50:20.555Z,16.69
2019-04-26T04:53:32.525Z,16.66
2019-04-26T04:56:37.374Z,16.67
2019-04-26T04:59:09.771Z,16.62
2019-04-26T05:02:43.310Z,16.56
2019-04-26T05:06:07.641Z,16.61
2019-04-26T05:09:08.411Z,16.68
2019-04-26T05:11:55.441Z,16.73
2019-04-26T05:14:41.298Z,16.77
2019-04-26T05:17:42.028Z,16.73
2019-04-26T05:20:26.528Z,16.75
2019-04-26T05:23:25.268Z,16.73
2019-04-26T05:27:19.994Z,16.75
2019-04-26T05:30:33.597Z,16.75
2019-04-26T05:33:27.581Z,16.66
2019-04-26T05:36:07.908Z,16.64
2019-04-26T05:39:21.555Z,16.71
2019-04-26T05:42:37.196Z,16.72
2019-04-26T05:46:21.133Z,16.70
2019-04-26T05:49:33.860Z,16.72
2019-04-26T05:52:46.186Z,16.75
2019-04-26T05:56:21.660Z,16.83
2019-04-26T05:59:07.115Z,16.84
2019-04-26T06:02:38.144Z,16.88
2019-04-26T06:05:17.421Z,16.93
2019-04-26T06:08:30.441Z,17.00
2019-04-26T06:10:55.949Z,17.11
2019-04-26T06:13:57.800Z,17.18
2019-04-26T06:16:55.584Z,17.27
2019-04-26T06:19:51.829Z,17.33
2019-04-26T06:22:43.920Z,17.38
2019-04-26T06:25:29.213Z,17.45
2019-04-26T06:28:28.351Z,17.47
2019-04-26T06:31:05.643Z,17.53
2019-04-26T06:33:45.337Z,17.55
2019-04-26T06:36:20.307Z,17.60
2019-04-26T06:39:45.413Z,17.64
2019-04-26T06:42:37.586Z,17.67
2019-04-26T06:45:50.998Z,17.65
2019-04-26T06:48:37.331Z,17.61
2019-04-26T06:51:23.520Z,17.57
2019-04-26T06:53:57.239Z,17.51
2019-04-26T06:56:40.207Z,17.46
2019-04-26T06:59:36.111Z,17.38
2019-04-26T07:02:10.227Z,17.39
2019-04-26T07:05:09.362Z,17.41
2019-04-26T07:08:21.289Z,17.46
2019-04-26T07:11:06.995Z,17.47
2019-04-26T07:14:13.448Z,17.50
2019-04-26T07:16:49.760Z,17.45
2019-04-26T07:19:30.599Z,17.41
2019-04-26T07:22:35.897Z,17.39
2019-04-26T07:25:51.072Z,17.39
2019-04-26T07:29:07.295Z,17.35
2019-04-26T07:31:55.768Z,17.32
2019-04-26T07:35:06.779Z,17.35
2019-04-26T07:38:16.440Z,17.36
2019-04-26T07:41:40.331Z,17.41
2019-04-26T07:44:25.356Z,17.39
2019-04-26T07:47:44.395Z,17.33
2019-04-26T07:50:41.775Z,17.39
2019-04-26T07:53:30.448Z,17.45
2019-04-26T07:56:07.176Z,17.45
2019-04-26T07:59:31.167Z,17.47
2019-04-26T08:02:29.528Z,17.48
2019-04-26T08:05:03.303Z,17.52
2019-04-26T08:07:37.520Z,17.60
2019-04-26T08:10:14.620Z,17.70
2019-04-26T08:12:44.025Z,17.84
2019-04-26T08:15:37.325Z,17.96
2019-04-26T08:18:13.171Z,18.02
2019-04-26T08:20:48.448Z,18.16
2019-04-26T08:23:38.534Z,18.30
2019-04-26T08:25:52.870Z,18.42
2019-04-26T08:28:22.154Z,18.52
2019-04-26T08:30:53.470Z,18.62
2019-04-26T08:33:26.086Z,18.58
2019-04-26T08:35:55.366Z,18.55
2019-04-26T08:38:24.694Z,18.51
2019-04-26T08:40:54.832Z,18.56
2019-04-26T08:43:41.956Z,18.65
2019-04-26T08:46:32.220Z,18.68
2019-04-26T08:49:09.754Z,18.68
2019-04-26T08:51:39.976Z,18.68
2019-04-26T08:54:14.653Z,18.69
2019-04-26T08:56:45.184Z,18.66
2019-04-26T08:59:20.362Z,18.56
2019-04-26T09:02:12.536Z,18.55
2019-04-26T09:04:50.552Z,18.56
2019-04-26T09:07:22.852Z,18.61
2019-04-26T09:09:57.393Z,18.60
2019-04-26T09:12:23.627Z,18.55
2019-04-26T09:14:54.104Z,18.53
2019-04-26T09:17:27.872Z,18.51
2019-04-26T09:20:07.123Z,18.54
2019-04-26T09:22:47.065Z,18.47
2019-04-26T09:25:34.600Z,18.43
2019-04-26T09:28:17.351Z,18.45
2019-04-26T09:31:15.332Z,18.50
2019-04-26T09:33:52.847Z,18.54
2019-04-26T09:36:22.510Z,18.60
2019-04-26T09:38:54.312Z,18.70
2019-04-26T09:41:26.624Z,18.79
2019-04-26T09:44:00.355Z,18.97
2019-04-26T09:46:54.649Z,19.11
2019-04-26T09:49:41.161Z,19.22
2019-04-26T09:52:19.180Z,19.34
2019-04-26T09:54:48.628Z,19.50
2019-04-26T09:57:19.835Z,19.64
2019-04-26T09:59:49.216Z,19.78
2019-04-26T10:02:18.772Z,19.87
2019-04-26T10:04:53.482Z,19.98
2019-04-26T10:07:24.796Z,20.05
2019-04-26T10:09:56.472Z,20.09
2019-04-26T10:12:34.208Z,20.18
2019-04-26T10:15:28.529Z,20.22
2019-04-26T10:17:58.288Z,20.17
2019-04-26T10:20:27.574Z,20.10
2019-04-26T10:22:57.090Z,19.99
2019-04-26T10:25:26.637Z,19.95
2019-04-26T10:27:56.167Z,19.92
2019-04-26T10:30:25.426Z,19.89
2019-04-26T10:32:58.398Z,19.90
2019-04-26T10:35:25.600Z,19.91
2019-04-26T10:37:54.736Z,20.00
2019-04-26T10:40:35.065Z,20.03
2019-04-26T10:42:54.811Z,20.05
2019-04-26T10:45:23.976Z,19.90
2019-04-26T10:47:53.071Z,19.89
2019-04-26T10:50:22.236Z,19.94
2019-04-26T10:53:25.664Z,20.03
2019-04-26T10:56:24.237Z,20.07
2019-04-26T10:59:01.102Z,20.12
2019-04-26T11:01:30.269Z,20.20
2019-04-26T11:04:00.587Z,20.34
2019-04-26T11:06:34.003Z,20.46
2019-04-26T11:09:03.352Z,20.59
2019-04-26T11:11:32.588Z,20.78
2019-04-26T11:14:02.780Z,21.21
2019-04-26T11:16:31.867Z,21.86
2019-04-26T11:19:02.182Z,22.44
2019-04-26T11:21:31.802Z,23.06
2019-04-26T11:24:01.187Z,23.90
2019-04-26T11:26:31.020Z,24.96
2019-04-26T11:29:03.295Z,25.65
2019-04-26T11:31:32.876Z,25.37
2019-04-26T11:34:05.313Z,24.78
2019-04-26T11:36:33.418Z,24.38
2019-04-26T11:39:05.545Z,24.10
2019-04-26T11:41:39.196Z,23.95
2019-04-26T11:44:08.342Z,24.00
2019-04-26T11:46:44.596Z,24.03
2019-04-26T11:49:08.568Z,23.95
2019-04-26T11:51:37.732Z,23.78
2019-04-26T11:54:07.013Z,23.65
2019-04-26T11:56:37.565Z,23.50
2019-04-26T11:59:07.193Z,23.40
2019-04-26T12:01:40.057Z,23.26
2019-04-26T12:04:35.979Z,23.21
2019-04-26T12:07:13.328Z,23.11
2019-04-26T12:09:46.170Z,22.97
2019-04-26T12:12:15.427Z,22.92
2019-04-26T12:14:44.749Z,22.92
2019-04-26T12:17:14.002Z,22.98
2019-04-26T12:19:44.187Z,23.12
2019-04-26T12:22:13.489Z,23.29
2019-04-26T12:24:42.736Z,23.47
2019-04-26T12:27:12.120Z,23.67
2019-04-26T12:29:44.219Z,23.80
2019-04-26T12:32:13.471Z,23.96
2019-04-26T12:34:43.193Z,24.13
2019-04-26T12:37:18.206Z,24.23
2019-04-26T12:39:43.242Z,24.32
2019-04-26T12:42:13.790Z,24.29
2019-04-26T12:45:08.069Z,24.25
2019-04-26T12:48:02.791Z,24.21
2019-04-26T12:50:36.539Z,24.11
2019-04-26T12:53:06.338Z,24.11
2019-04-26T12:55:35.539Z,24.17
2019-04-26T12:58:05.106Z,24.24
2019-04-26T13:00:53.132Z,24.27
2019-04-26T13:03:20.752Z,24.24
2019-04-26T13:05:57.649Z,24.18
2019-04-26T13:08:23.867Z,24.12
2019-04-26T13:11:15.089Z,24.07
2019-04-26T13:14:04.379Z,24.06
2019-04-26T13:16:51.246Z,24.04
2019-04-26T13:19:21.032Z,24.05
2019-04-26T13:21:50.360Z,24.02
2019-04-26T13:24:20.957Z,24.03
2019-04-26T13:26:50.385Z,24.08
2019-04-26T13:29:19.724Z,24.13
2019-04-26T13:31:48.887Z,24.13
2019-04-26T13:34:18.083Z,24.07
2019-04-26T13:36:47.135Z,24.02
2019-04-26T13:39:17.889Z,24.04
2019-04-26T13:41:47.780Z,24.07
2019-04-26T13:44:19.708Z,24.12
2019-04-26T13:47:09.308Z,24.22
2019-04-26T13:49:44.072Z,24.35
2019-04-26T13:52:13.243Z,24.42
2019-04-26T13:54:42.393Z,24.47
2019-04-26T13:57:12.192Z,24.57
2019-04-26T13:59:41.558Z,24.68
2019-04-26T14:02:12.430Z,24.77
2019-04-26T14:04:42.686Z,24.82
2019-04-26T14:07:19.981Z,24.83
2019-04-26T14:09:48.999Z,24.75
2019-04-26T14:12:19.025Z,24.63
2019-04-26T14:14:48.576Z,24.58
2019-04-26T14:17:17.969Z,24.65
2019-04-26T14:19:49.602Z,24.79
2019-04-26T14:22:21.039Z,24.96
2019-04-26T14:25:03.623Z,25.19
2019-04-26T14:27:51.556Z,25.36
2019-04-26T14:30:21.190Z,25.52
2019-04-26T14:32:53.177Z,25.50
2019-04-26T14:35:22.495Z,25.48
2019-04-26T14:37:51.855Z,25.44
2019-04-26T14:40:21.255Z,25.34
2019-04-26T14:42:50.615Z,25.29
2019-04-26T14:45:23.843Z,25.28
2019-04-26T14:47:50.859Z,25.30
2019-04-26T14:50:19.996Z,25.26
2019-04-26T14:52:49.194Z,25.26
2019-04-26T14:55:21.177Z,25.29
2019-04-26T14:57:51.363Z,25.30
2019-04-26T15:00:25.141Z,25.34
2019-04-26T15:03:03.255Z,25.39
2019-04-26T15:05:50.026Z,25.34
2019-04-26T15:08:20.111Z,25.34
2019-04-26T15:10:57.613Z,25.31
2019-04-26T15:13:23.501Z,25.22
2019-04-26T15:15:52.771Z,25.09
2019-04-26T15:18:22.471Z,24.97
2019-04-26T15:20:55.668Z,24.83
2019-04-26T15:23:26.449Z,24.75
2019-04-26T15:25:53.549Z,24.71
2019-04-26T15:28:22.625Z,24.66
2019-04-26T15:30:52.762Z,24.59
2019-04-26T15:33:23.303Z,24.51
2019-04-26T15:35:52.768Z,24.41
2019-04-26T15:38:22.858Z,24.26
2019-04-26T15:41:22.773Z,24.10
2019-04-26T15:44:06.605Z,23.89
2019-04-26T15:47:03.345Z,23.73
2019-04-26T15:49:52.885Z,23.73
2019-04-26T15:52:22.215Z,23.77
2019-04-26T15:54:54.387Z,23.78
2019-04-26T15:57:24.384Z,23.76
2019-04-26T15:59:54.433Z,23.71
2019-04-26T16:02:26.181Z,23.62
2019-04-26T16:04:54.884Z,23.38
2019-04-26T16:07:28.906Z,23.03
2019-04-26T16:09:57.352Z,22.86
2019-04-26T16:12:27.278Z,22.78
2019-04-26T16:14:56.563Z,22.71
2019-04-26T16:17:26.012Z,22.72
2019-04-26T16:20:00.060Z,22.70
2019-04-26T16:22:30.147Z,22.67
2019-04-26T16:25:04.013Z,22.67
2019-04-26T16:27:34.140Z,22.69
2019-04-26T16:30:23.086Z,22.74
2019-04-26T16:33:04.392Z,22.80
2019-04-26T16:35:33.650Z,22.87
2019-04-26T16:38:22.919Z,22.96
2019-04-26T16:40:54.614Z,23.00
2019-04-26T16:43:36.590Z,23.01
2019-04-26T16:45:55.033Z,22.97
2019-04-26T16:48:25.672Z,22.90
2019-04-26T16:50:56.321Z,22.83
2019-04-26T16:53:45.518Z,22.76
2019-04-26T16:55:56.422Z,22.65
2019-04-26T17:00:58.030Z,22.40
2019-04-26T17:03:27.848Z,22.29
2019-04-26T17:06:05.351Z,22.22
2019-04-26T17:08:28.433Z,22.18
2019-04-26T17:11:00.675Z,22.14
2019-04-26T17:13:30.019Z,22.08
2019-04-26T17:15:59.958Z,22.01
2019-04-26T17:18:29.183Z,21.99
2019-04-26T17:20:58.473Z,21.94
2019-04-26T17:23:46.214Z,21.91
2019-04-26T17:26:32.693Z,21.73
2019-04-26T17:29:00.183Z,21.50
2019-04-26T17:31:29.677Z,21.29
2019-04-26T17:33:58.874Z,21.16
2019-04-26T17:36:28.018Z,21.04
2019-04-26T17:38:57.217Z,20.93
2019-04-26T17:41:26.352Z,20.90
2019-04-26T17:44:08.019Z,20.87
2019-04-26T17:46:29.285Z,20.81
2019-04-26T17:49:00.409Z,20.67
2019-04-26T17:51:31.276Z,20.51
2019-04-26T17:54:25.918Z,20.38
2019-04-26T17:56:34.869Z,20.30
2019-04-26T17:59:04.568Z,20.21
2019-04-26T18:01:44.462Z,20.14
2019-04-26T18:04:03.658Z,20.07
2019-04-26T18:06:32.821Z,20.07
2019-04-26T18:09:01.928Z,20.06
2019-04-26T18:11:32.966Z,19.98
2019-04-26T18:14:01.777Z,19.88
2019-04-26T18:16:30.869Z,19.76
2019-04-26T18:19:17.716Z,19.61
2019-04-26T18:22:00.162Z,19.44
2019-04-26T18:24:32.261Z,19.23
2019-04-26T18:27:00.603Z,19.08
2019-04-26T18:29:30.469Z,18.92
2019-04-26T18:32:03.726Z,18.79
2019-04-26T18:34:34.268Z,18.67
2019-04-26T18:37:04.124Z,18.55
2019-04-26T18:39:33.143Z,18.44
2019-04-26T18:42:05.713Z,18.34
2019-04-26T18:44:36.987Z,18.24
2019-04-26T18:47:20.297Z,18.14
2019-04-26T18:49:45.195Z,18.04
2019-04-26T18:52:14.322Z,17.90
2019-04-26T18:54:51.327Z,17.82
2019-04-26T18:57:20.259Z,17.73
2019-04-26T18:59:51.322Z,17.60
2019-04-26T19:02:25.217Z,17.49
2019-04-26T19:04:54.235Z,17.38
2019-04-26T19:07:32.016Z,17.32
2019-04-26T19:10:02.123Z,17.26
2019-04-26T19:12:27.006Z,17.20
2019-04-26T19:15:41.897Z,17.17
2019-04-26T19:18:24.316Z,17.13
2019-04-26T19:21:02.791Z,17.07
2019-04-26T19:23:32.042Z,17.04
2019-04-26T19:26:01.783Z,17.01
2019-04-26T19:28:31.013Z,16.98
2019-04-26T19:31:00.058Z,16.94
2019-04-26T19:33:29.131Z,16.92
2019-04-26T19:35:58.242Z,16.89
2019-04-26T19:38:27.413Z,16.85
2019-04-26T19:40:56.539Z,16.82
2019-04-26T19:43:31.155Z,16.79
2019-04-26T19:46:07.352Z,16.75
2019-04-26T19:48:56.617Z,16.68
2019-04-26T19:51:56.585Z,16.61
2019-04-26T19:54:37.080Z,16.50
2019-04-26T19:57:10.683Z,16.42
2019-04-26T19:59:39.789Z,16.32
2019-04-26T20:02:08.984Z,16.27
2019-04-26T20:04:37.995Z,16.23
2019-04-26T20:07:07.129Z,16.21
2019-04-26T20:09:36.236Z,16.19
2019-04-26T20:12:05.351Z,16.14
2019-04-26T20:14:44.747Z,16.08
2019-04-26T20:17:05.438Z,16.06
2019-04-26T20:19:37.454Z,16.04
2019-04-26T20:22:05.898Z,15.99
2019-04-26T20:24:34.954Z,15.95
2019-04-26T20:27:04.077Z,15.94
2019-04-26T20:29:33.318Z,15.90
2019-04-26T20:32:12.518Z,15.89
2019-04-26T20:34:45.256Z,15.89
2019-04-26T20:37:16.152Z,15.88
2019-04-26T20:39:45.404Z,15.88
2019-04-26T20:42:14.546Z,15.86
2019-04-26T20:44:51.105Z,15.83
2019-04-26T20:47:17.574Z,15.81
2019-04-26T20:49:49.688Z,15.78
2019-04-26T20:52:16.505Z,15.75
2019-04-26T20:54:50.646Z,15.72
2019-04-26T20:57:17.525Z,15.68
2019-04-26T20:59:46.546Z,15.63
2019-04-26T21:02:16.320Z,15.62
2019-04-26T21:04:46.359Z,15.59
2019-04-26T21:07:15.343Z,15.58
2019-04-26T21:09:44.355Z,15.55
2019-04-26T21:12:17.125Z,15.55
2019-04-26T21:14:45.418Z,15.54
2019-04-26T21:17:14.731Z,15.54
2019-04-26T21:19:43.743Z,15.49
2019-04-26T21:22:12.853Z,15.44
2019-04-26T21:24:43.944Z,15.41
2019-04-26T21:27:29.876Z,15.38
2019-04-26T21:30:05.567Z,15.34
2019-04-26T21:32:56.024Z,15.27
2019-04-26T21:35:24.988Z,15.24
2019-04-26T21:38:03.763Z,15.21
2019-04-26T21:40:40.764Z,15.18
2019-04-26T21:43:09.787Z,15.16
2019-04-26T21:45:38.830Z,15.18
2019-04-26T21:48:08.170Z,15.18
2019-04-26T21:50:38.998Z,15.19
2019-04-26T21:53:08.264Z,15.18
2019-04-26T21:55:38.778Z,15.16
2019-04-26T21:58:08.179Z,15.11
2019-04-26T22:00:55.091Z,15.09
2019-04-26T22:03:25.761Z,15.04
2019-04-26T22:05:54.790Z,15.00
2019-04-26T22:08:27.714Z,14.95
2019-04-26T22:10:56.769Z,14.94
2019-04-26T22:13:33.295Z,14.95
2019-04-26T22:16:29.416Z,15.02
2019-04-26T22:18:57.765Z,15.09
2019-04-26T22:21:34.010Z,15.19
2019-04-26T22:24:10.402Z,15.28
2019-04-26T22:26:44.385Z,15.36
2019-04-26T22:29:13.944Z,15.45
2019-04-26T22:31:41.417Z,15.52
2019-04-26T22:34:12.917Z,15.54
2019-04-26T22:36:43.903Z,15.57
2019-04-26T22:39:18.961Z,15.58
2019-04-26T22:41:48.097Z,15.57
2019-04-26T22:44:24.837Z,15.55
2019-04-26T22:47:03.577Z,15.54
2019-04-26T22:49:35.031Z,15.51
2019-04-26T22:52:06.483Z,15.47
2019-04-26T22:54:33.573Z,15.45
2019-04-26T22:57:03.936Z,15.46
2019-04-26T22:59:33.915Z,15.46
2019-04-26T23:02:04.277Z,15.47
2019-04-26T23:04:33.299Z,15.48
2019-04-26T23:07:03.411Z,15.47
2019-04-26T23:09:37.000Z,15.49
2019-04-26T23:12:25.339Z,15.52
2019-04-26T23:15:09.460Z,15.56
2019-04-26T23:18:03.667Z,15.53
2019-04-26T23:20:53.343Z,15.45
2019-04-26T23:23:23.686Z,15.44
2019-04-26T23:25:52.980Z,15.48
2019-04-26T23:28:21.969Z,15.56
2019-04-26T23:30:52.976Z,15.66
2019-04-26T23:33:23.822Z,15.74
2019-04-26T23:35:53.109Z,15.78
2019-04-26T23:38:23.469Z,15.83
2019-04-26T23:40:52.674Z,15.87
2019-04-26T23:43:25.272Z,15.82
2019-04-26T23:45:53.031Z,15.79
2019-04-26T23:48:22.668Z,15.76
2019-04-26T23:50:51.685Z,15.74
2019-04-26T23:53:21.907Z,15.74
2019-04-26T23:55:50.935Z,15.74
2019-04-26T23:58:19.952Z,15.76
